This is the latest recevied weather packets stored in our database for station/object OK2BOZ-1. If no packets are shown the sender has not sent any weather packets the latest 10 day(s).
| Time | Temp. | Humidity | Pressure | Rain* | Wind** | Luminosity | Snow |
|---|---|---|---|---|---|---|---|
| 1777967330 | 22.22° C | 42% | 1008.8 hPa | - | - | - | - |
| 1777966700 | 21.11° C | 45% | 1008.9 hPa | - | - | - | - |
| 1777966385 | 20° C | 46% | 1008.9 hPa | - | - | - | - |
| 1777966070 | 20° C | 47% | 1008.9 hPa | - | - | - | - |
| 1777965755 | 19.44° C | 46% | 1008.9 hPa | - | - | - | - |
| 1777965440 | 20° C | 45% | 1009 hPa | - | - | - | - |
| 1777965125 | 20.56° C | 45% | 1009 hPa | - | - | - | - |
| 1777964810 | 20.56° C | 45% | 1008.9 hPa | - | - | - | - |
| 1777964495 | 20.56° C | 46% | 1009 hPa | - | - | - | - |
| 1777964180 | 20.56° C | 47% | 1009 hPa | - | - | - | - |
| 1777963866 | 20.56° C | 46% | 1009 hPa | - | - | - | - |
| 1777963551 | 20.56° C | 49% | 1008.9 hPa | - | - | - | - |
| 1777963235 | 18.33° C | 52% | 1009.1 hPa | - | - | - | - |
| 1777962920 | 17.78° C | 55% | 1009.1 hPa | - | - | - | - |
| 1777962607 | 17.22° C | 56% | 1009 hPa | - | - | - | - |
| 1777962291 | 17.22° C | 55% | 1009.1 hPa | - | - | - | - |
| 1777961976 | 17.22° C | 54% | 1009.1 hPa | - | - | - | - |
| 1777961662 | 17.78° C | 54% | 1009.1 hPa | - | - | - | - |
| 1777961347 | 16.67° C | 56% | 1009.1 hPa | - | - | - | - |
| 1777961033 | 15.56° C | 59% | 1009 hPa | - | - | - | - |
| 1777960718 | 15° C | 60% | 1009.1 hPa | - | - | - | - |
| 1777960404 | 14.44° C | 60% | 1009.1 hPa | - | - | - | - |
| 1777960090 | 15° C | 58% | 1009.2 hPa | - | - | - | - |
| 1777959775 | 15° C | 59% | 1009.2 hPa | - | - | - | - |
| 1777959461 | 14.44° C | 60% | 1009.2 hPa | - | - | - | - |
* Rain since midnight (hover to see other rain measurements)
** Current wind speed in m/s (hover to see current wind gust speed)